createdAt,value
2023-05-08T00:01:33.728Z,101414.62
2023-05-08T00:04:00.731Z,101403.92
2023-05-08T00:06:31.267Z,101398.77
2023-05-08T00:08:58.127Z,101383.10
2023-05-08T00:11:25.127Z,101373.74
2023-05-08T00:13:52.050Z,101377.78
2023-05-08T00:16:19.062Z,101377.46
2023-05-08T00:18:47.294Z,101383.63
2023-05-08T00:21:14.172Z,101391.13
2023-05-08T00:23:41.641Z,101403.66
2023-05-08T00:26:08.516Z,101408.98
2023-05-08T00:28:35.457Z,101404.89
2023-05-08T00:31:02.568Z,101397.71
2023-05-08T00:33:29.620Z,101397.70
2023-05-08T00:36:03.722Z,101390.27
2023-05-08T00:38:32.050Z,101375.22
2023-05-08T00:40:59.272Z,101367.21
2023-05-08T00:43:28.463Z,101369.91
2023-05-08T00:45:56.962Z,101386.50
2023-05-08T00:48:25.557Z,101392.34
2023-05-08T00:50:53.879Z,101375.60
2023-05-08T00:53:22.797Z,101364.48
2023-05-08T00:55:51.870Z,101379.21
2023-05-08T00:58:21.179Z,101411.73
2023-05-08T01:00:51.159Z,101425.92
2023-05-08T01:03:18.351Z,101434.23
2023-05-08T01:05:46.227Z,101437.42
2023-05-08T01:08:13.208Z,101435.30
2023-05-08T01:11:09.286Z,101429.60
2023-05-08T01:13:54.255Z,101425.30
2023-05-08T01:16:58.646Z,101404.62
2023-05-08T01:19:49.813Z,101395.74
2023-05-08T01:22:56.443Z,101411.54
2023-05-08T01:25:54.962Z,101439.96
2023-05-08T01:28:52.771Z,101460.02
2023-05-08T01:31:34.831Z,101453.69
2023-05-08T01:34:35.369Z,101444.27
2023-05-08T01:37:06.967Z,101429.18
2023-05-08T01:39:46.069Z,101415.41
2023-05-08T01:42:42.305Z,101417.70
2023-05-08T01:45:27.152Z,101421.41
2023-05-08T01:48:11.110Z,101408.61
2023-05-08T01:51:04.003Z,101396.33
2023-05-08T01:53:37.831Z,101406.85
2023-05-08T01:56:12.272Z,101424.81
2023-05-08T01:58:42.317Z,101424.23
2023-05-08T02:01:11.915Z,101407.38
2023-05-08T02:03:41.979Z,101376.34
2023-05-08T02:06:13.178Z,101361.30
2023-05-08T02:08:41.599Z,101351.67
2023-05-08T02:11:10.520Z,101350.51
2023-05-08T02:13:40.445Z,101358.31
2023-05-08T02:16:10.907Z,101356.77
2023-05-08T02:18:40.350Z,101355.18
2023-05-08T02:21:09.596Z,101348.13
2023-05-08T02:23:36.972Z,101341.16
2023-05-08T02:26:05.307Z,101334.46
2023-05-08T02:28:33.750Z,101343.23
2023-05-08T02:31:01.910Z,101349.27
2023-05-08T02:33:30.251Z,101348.59
2023-05-08T02:35:59.014Z,101336.67
2023-05-08T02:38:27.247Z,101321.33
2023-05-08T02:40:58.246Z,101315.91
2023-05-08T02:43:25.504Z,101325.90
2023-05-08T02:46:24.296Z,101337.33
2023-05-08T02:48:59.385Z,101349.98
2023-05-08T02:51:49.378Z,101361.73
2023-05-08T02:54:46.999Z,101362.10
2023-05-08T02:57:36.395Z,101357.11
2023-05-08T03:00:15.461Z,101352.37
2023-05-08T03:02:53.094Z,101335.79
2023-05-08T03:05:29.313Z,101331.42
2023-05-08T03:08:00.961Z,101326.97
2023-05-08T03:10:33.481Z,101327.23
2023-05-08T03:13:07.477Z,101329.89
2023-05-08T03:15:47.325Z,101330.33
2023-05-08T03:18:19.484Z,101329.10
2023-05-08T03:20:49.898Z,101340.09
2023-05-08T03:23:20.109Z,101359.02
2023-05-08T03:25:47.208Z,101383.84
2023-05-08T03:28:15.466Z,101398.83
2023-05-08T03:30:43.865Z,101406.58
2023-05-08T03:33:14.170Z,101399.79
2023-05-08T03:35:42.695Z,101384.27
2023-05-08T03:38:10.503Z,101373.33
2023-05-08T03:40:42.894Z,101364.17
2023-05-08T03:43:12.295Z,101363.48
2023-05-08T03:45:41.119Z,101371.73
2023-05-08T03:48:10.603Z,101383.41
2023-05-08T03:50:39.049Z,101383.89
2023-05-08T03:53:09.265Z,101382.98
2023-05-08T03:55:36.919Z,101384.96
2023-05-08T03:58:29.466Z,101395.37
2023-05-08T04:01:14.041Z,101408.59
2023-05-08T04:04:02.957Z,101414.60
2023-05-08T04:06:49.487Z,101406.85
2023-05-08T04:09:50.172Z,101405.64
2023-05-08T04:12:26.817Z,101398.94
2023-05-08T04:15:01.612Z,101400.64
2023-05-08T04:17:41.347Z,101409.09
2023-05-08T04:20:13.842Z,101405.89
2023-05-08T04:22:45.384Z,101397.92
2023-05-08T04:25:15.590Z,101398.73
2023-05-08T04:27:44.631Z,101407.77
2023-05-08T04:30:13.605Z,101414.36
2023-05-08T04:32:42.889Z,101412.38
2023-05-08T04:35:13.965Z,101404.90
2023-05-08T04:37:43.619Z,101401.44
2023-05-08T04:40:11.239Z,101401.98
2023-05-08T04:42:39.677Z,101413.21
2023-05-08T04:45:07.294Z,101425.96
2023-05-08T04:47:34.738Z,101438.20
2023-05-08T04:50:03.163Z,101442.77
2023-05-08T04:52:31.610Z,101430.33
2023-05-08T04:54:58.583Z,101424.48
2023-05-08T04:57:25.485Z,101432.77
2023-05-08T04:59:52.533Z,101440.66
2023-05-08T05:02:19.850Z,101446.50
2023-05-08T05:04:47.233Z,101441.19
2023-05-08T05:07:16.235Z,101444.36
2023-05-08T05:09:43.635Z,101455.48
2023-05-08T05:12:10.834Z,101462.58
2023-05-08T05:14:37.777Z,101457.36
2023-05-08T05:17:04.720Z,101452.02
2023-05-08T05:19:32.089Z,101448.61
2023-05-08T05:22:00.343Z,101453.73
2023-05-08T05:24:28.561Z,101457.77
2023-05-08T05:26:58.230Z,101455.83
2023-05-08T05:29:25.946Z,101454.92
2023-05-08T05:31:54.186Z,101463.84
2023-05-08T05:34:22.154Z,101472.60
2023-05-08T05:36:49.289Z,101480.48
2023-05-08T05:39:16.650Z,101485.66
2023-05-08T05:41:44.506Z,101482.13
2023-05-08T05:44:12.269Z,101481.34
2023-05-08T05:46:39.282Z,101481.77
2023-05-08T05:49:06.566Z,101481.34
2023-05-08T05:51:33.648Z,101476.91
2023-05-08T05:54:00.885Z,101472.34
2023-05-08T05:56:28.124Z,101461.82
2023-05-08T05:58:55.679Z,101455.67
2023-05-08T06:01:25.085Z,101438.88
2023-05-08T06:03:52.328Z,101432.52
2023-05-08T06:06:19.488Z,101422.59
2023-05-08T06:08:48.662Z,101400.85
2023-05-08T06:11:15.626Z,101386.17
2023-05-08T06:13:44.106Z,101383.78
2023-05-08T06:16:12.176Z,101383.89
2023-05-08T06:18:39.133Z,101382.73
2023-05-08T06:21:06.271Z,101388.57
2023-05-08T06:23:33.832Z,101392.29
2023-05-08T06:26:01.129Z,101390.42
2023-05-08T06:28:28.453Z,101377.94
2023-05-08T06:30:55.615Z,101358.76
2023-05-08T06:33:24.106Z,101351.31
2023-05-08T06:35:52.554Z,101353.04
2023-05-08T06:38:19.500Z,101368.12
2023-05-08T06:40:47.370Z,101384.08
2023-05-08T06:43:14.518Z,101395.64
2023-05-08T06:45:43.409Z,101397.88
2023-05-08T06:48:10.593Z,101401.31
2023-05-08T06:50:41.088Z,101418.27
2023-05-08T06:53:08.198Z,101455.02
2023-05-08T06:55:35.182Z,101489.81
2023-05-08T06:58:02.130Z,101514.73
2023-05-08T07:00:29.131Z,101531.63
2023-05-08T07:02:56.200Z,101539.91
2023-05-08T07:05:23.353Z,101544.32
2023-05-08T07:07:50.331Z,101567.08
2023-05-08T07:10:20.134Z,101587.48
2023-05-08T07:12:47.100Z,101595.23
2023-05-08T07:15:25.643Z,101590.48
2023-05-08T07:17:54.455Z,101577.15
2023-05-08T07:20:21.898Z,101573.37
2023-05-08T07:22:48.997Z,101590.17
2023-05-08T07:25:18.181Z,101601.19
2023-05-08T07:27:46.352Z,101595.66
2023-05-08T07:30:13.705Z,101592.11
2023-05-08T07:32:41.040Z,101596.95
2023-05-08T07:35:11.023Z,101608.54
2023-05-08T07:37:41.616Z,101615.03
2023-05-08T07:40:09.244Z,101616.33
2023-05-08T07:42:44.074Z,101601.88
2023-05-08T07:45:13.861Z,101598.56
2023-05-08T07:47:59.398Z,101602.41
2023-05-08T07:50:26.715Z,101609.59
2023-05-08T07:52:54.133Z,101614.00
2023-05-08T07:55:21.712Z,101614.10
2023-05-08T07:57:48.624Z,101613.45
2023-05-08T08:00:16.724Z,101609.75
2023-05-08T08:02:44.944Z,101591.20
2023-05-08T08:05:12.736Z,101583.71
2023-05-08T08:07:41.501Z,101583.55
2023-05-08T08:10:10.075Z,101588.59
2023-05-08T08:12:37.410Z,101593.32
2023-05-08T08:15:05.168Z,101595.61
2023-05-08T08:17:32.109Z,101588.39
2023-05-08T08:19:59.255Z,101574.67
2023-05-08T08:22:26.759Z,101556.81
2023-05-08T08:24:56.136Z,101546.55
2023-05-08T08:27:23.737Z,101534.42
2023-05-08T08:29:58.496Z,101530.28
2023-05-08T08:32:33.185Z,101526.41
2023-05-08T08:35:01.068Z,101528.10
2023-05-08T08:37:28.886Z,101525.08
2023-05-08T08:39:55.841Z,101520.50
2023-05-08T08:42:23.705Z,101519.44
2023-05-08T08:44:51.442Z,101524.38
2023-05-08T08:47:23.572Z,101524.02
2023-05-08T08:49:51.501Z,101527.79
2023-05-08T08:52:37.271Z,101529.65
2023-05-08T08:55:06.193Z,101536.39
2023-05-08T08:57:35.800Z,101538.89
2023-05-08T09:00:05.555Z,101543.63
2023-05-08T09:02:32.710Z,101546.55
2023-05-08T09:05:00.034Z,101542.61
2023-05-08T09:07:27.933Z,101533.26
2023-05-08T09:09:55.450Z,101524.17
2023-05-08T09:12:22.393Z,101518.15
2023-05-08T09:14:50.420Z,101510.35
2023-05-08T09:17:17.444Z,101512.30
2023-05-08T09:19:45.069Z,101510.55
2023-05-08T09:22:12.138Z,101514.13
2023-05-08T09:24:59.878Z,101506.36
2023-05-08T09:27:28.805Z,101508.91
2023-05-08T09:30:07.375Z,101510.56
2023-05-08T09:32:44.434Z,101505.15
2023-05-08T09:35:13.295Z,101503.45
2023-05-08T09:37:42.870Z,101513.23
2023-05-08T09:40:14.520Z,101528.96
2023-05-08T09:42:42.137Z,101553.25
2023-05-08T09:45:09.595Z,101576.63
2023-05-08T09:47:40.395Z,101606.25
2023-05-08T09:50:09.820Z,101634.90
2023-05-08T09:52:38.662Z,101654.41
2023-05-08T09:55:07.356Z,101668.66
2023-05-08T09:57:38.414Z,101688.81
2023-05-08T10:00:13.904Z,101700.54
2023-05-08T10:02:42.792Z,101700.33
2023-05-08T10:05:31.650Z,101699.00
2023-05-08T10:08:00.313Z,101692.63
2023-05-08T10:10:29.121Z,101685.29
2023-05-08T10:12:58.247Z,101676.27
2023-05-08T10:15:29.036Z,101663.60
2023-05-08T10:18:14.923Z,101655.96
2023-05-08T10:20:45.314Z,101654.73
2023-05-08T10:23:16.083Z,101657.77
2023-05-08T10:25:46.662Z,101653.23
2023-05-08T10:28:15.437Z,101651.16
2023-05-08T10:30:48.961Z,101649.46
2023-05-08T10:33:21.519Z,101642.88
2023-05-08T10:35:48.931Z,101634.10
2023-05-08T10:38:17.202Z,101633.63
2023-05-08T10:40:44.884Z,101630.55
2023-05-08T10:43:12.605Z,101614.96
2023-05-08T10:45:40.057Z,101613.64
2023-05-08T10:48:31.749Z,101617.57
2023-05-08T10:51:16.448Z,101608.48
2023-05-08T10:53:55.811Z,101591.98
2023-05-08T10:56:29.376Z,101575.24
2023-05-08T10:58:57.837Z,101572.54
2023-05-08T11:01:26.296Z,101569.61
2023-05-08T11:03:55.428Z,101561.44
2023-05-08T11:06:43.038Z,101552.08
2023-05-08T11:09:15.968Z,101543.77
2023-05-08T11:11:56.908Z,101536.11
2023-05-08T11:14:24.339Z,101525.87
2023-05-08T11:16:54.138Z,101515.92
2023-05-08T11:19:22.956Z,101510.82
2023-05-08T11:22:23.857Z,101496.75
2023-05-08T11:24:54.724Z,101478.73
2023-05-08T11:27:35.509Z,101457.17
2023-05-08T11:30:21.066Z,101430.88
2023-05-08T11:33:04.023Z,101397.45
2023-05-08T11:35:56.918Z,101357.84
2023-05-08T11:38:32.605Z,101331.59
2023-05-08T11:41:10.101Z,101314.17
2023-05-08T11:43:46.009Z,101293.13
2023-05-08T11:46:17.453Z,101268.04
2023-05-08T11:48:44.669Z,101238.23
2023-05-08T11:51:11.693Z,101222.76
2023-05-08T11:53:38.950Z,101214.16
2023-05-08T11:56:06.332Z,101204.13
2023-05-08T11:58:33.321Z,101195.73
2023-05-08T12:01:00.693Z,101200.84
2023-05-08T12:03:27.876Z,101208.25
2023-05-08T12:05:59.212Z,101207.73
2023-05-08T12:08:26.437Z,101210.29
2023-05-08T12:10:55.200Z,101208.98
2023-05-08T12:13:30.186Z,101202.03
2023-05-08T12:15:59.732Z,101198.43
2023-05-08T12:18:29.462Z,101197.73
2023-05-08T12:20:58.825Z,101204.16
2023-05-08T12:23:26.990Z,101200.80
2023-05-08T12:25:55.400Z,101193.94
2023-05-08T12:28:22.948Z,101193.94
2023-05-08T12:30:50.568Z,101196.80
2023-05-08T12:33:18.747Z,101193.77
2023-05-08T12:35:45.834Z,101194.30
2023-05-08T12:38:13.176Z,101195.31
2023-05-08T12:40:45.531Z,101204.34
2023-05-08T12:43:12.831Z,101206.48
2023-05-08T12:45:43.285Z,101214.40
2023-05-08T12:48:12.557Z,101211.77
2023-05-08T12:50:41.433Z,101209.65
2023-05-08T12:53:13.184Z,101210.86
2023-05-08T12:55:51.929Z,101212.19
2023-05-08T12:58:19.645Z,101221.80
2023-05-08T13:00:47.500Z,101224.98
2023-05-08T13:03:22.852Z,101217.55
2023-05-08T13:05:50.007Z,101212.23
2023-05-08T13:08:16.998Z,101205.65
2023-05-08T13:10:52.283Z,101196.23
2023-05-08T13:13:22.440Z,101187.05
2023-05-08T13:15:50.831Z,101184.55
2023-05-08T13:18:20.180Z,101181.73
2023-05-08T13:20:47.476Z,101178.28
2023-05-08T13:23:14.438Z,101178.71
2023-05-08T13:25:41.588Z,101175.90
2023-05-08T13:28:09.876Z,101183.61
2023-05-08T13:30:37.760Z,101196.64
2023-05-08T13:33:05.539Z,101198.64
2023-05-08T13:35:33.923Z,101196.56
2023-05-08T13:38:02.584Z,101197.85
2023-05-08T13:40:30.087Z,101195.55
2023-05-08T13:42:57.099Z,101185.45
2023-05-08T13:45:24.251Z,101173.23
2023-05-08T13:47:51.791Z,101170.78
2023-05-08T13:50:22.487Z,101175.21
2023-05-08T13:52:51.003Z,101173.02
2023-05-08T13:55:22.109Z,101173.66
2023-05-08T13:57:49.046Z,101179.09
2023-05-08T14:00:16.723Z,101179.09
2023-05-08T14:02:43.949Z,101173.73
2023-05-08T14:05:11.467Z,101177.20
2023-05-08T14:07:39.355Z,101181.83
2023-05-08T14:10:06.723Z,101190.13
2023-05-08T14:12:37.061Z,101203.35
2023-05-08T14:15:05.849Z,101216.80
2023-05-08T14:17:32.859Z,101230.58
2023-05-08T14:20:00.458Z,101227.91
2023-05-08T14:22:27.573Z,101225.59
2023-05-08T14:24:54.581Z,101223.77
2023-05-08T14:27:21.998Z,101215.38
2023-05-08T14:29:49.544Z,101204.86
2023-05-08T14:32:16.556Z,101195.88
2023-05-08T14:34:43.636Z,101197.69
2023-05-08T14:37:11.518Z,101200.28
2023-05-08T14:39:38.646Z,101202.16
2023-05-08T14:42:22.153Z,101199.56
2023-05-08T14:44:50.289Z,101201.20
2023-05-08T14:47:17.663Z,101199.77
2023-05-08T14:49:44.574Z,101198.23
2023-05-08T14:52:11.600Z,101192.01
2023-05-08T14:54:38.904Z,101189.46
2023-05-08T14:57:05.998Z,101188.94
2023-05-08T14:59:33.060Z,101185.59
2023-05-08T15:02:00.207Z,101184.00
2023-05-08T15:04:27.559Z,101185.71
2023-05-08T15:06:54.528Z,101186.81
2023-05-08T15:09:21.444Z,101191.02
2023-05-08T15:11:48.604Z,101192.27
2023-05-08T15:14:15.847Z,101192.34
2023-05-08T15:16:43.061Z,101190.26
2023-05-08T15:19:10.086Z,101197.21
2023-05-08T15:21:37.295Z,101206.30
2023-05-08T15:24:04.322Z,101211.29
2023-05-08T15:26:31.703Z,101210.96
2023-05-08T15:28:58.617Z,101211.66
2023-05-08T15:31:25.598Z,101213.30
2023-05-08T15:33:52.471Z,101215.18
2023-05-08T15:36:19.847Z,101212.98
2023-05-08T15:38:49.492Z,101213.20
2023-05-08T15:41:16.539Z,101213.77
2023-05-08T15:43:45.519Z,101213.14
2023-05-08T15:46:12.608Z,101211.49
2023-05-08T15:48:39.598Z,101218.62
2023-05-08T15:51:06.722Z,101232.59
2023-05-08T15:53:34.743Z,101236.69
2023-05-08T15:56:01.689Z,101236.59
2023-05-08T15:58:28.941Z,101232.93
2023-05-08T16:00:57.183Z,101228.89
2023-05-08T16:03:24.764Z,101225.16
2023-05-08T16:05:51.732Z,101221.23
2023-05-08T16:08:18.886Z,101217.31
2023-05-08T16:10:45.825Z,101216.40
2023-05-08T16:13:12.916Z,101221.58
2023-05-08T16:15:40.368Z,101226.02
2023-05-08T16:18:08.000Z,101231.26
2023-05-08T16:20:35.891Z,101231.73
2023-05-08T16:23:03.514Z,101228.91
2023-05-08T16:25:30.362Z,101219.88
2023-05-08T16:27:57.299Z,101209.45
2023-05-08T16:30:24.447Z,101199.63
2023-05-08T16:32:51.613Z,101191.96
2023-05-08T16:35:19.733Z,101188.97
2023-05-08T16:37:46.944Z,101188.02
2023-05-08T16:40:14.082Z,101179.55
2023-05-08T16:42:41.126Z,101179.48
2023-05-08T16:45:08.690Z,101171.79
2023-05-08T16:47:36.527Z,101169.64
2023-05-08T16:50:05.147Z,101168.10
2023-05-08T16:52:33.116Z,101169.79
2023-05-08T16:55:00.612Z,101173.52
2023-05-08T16:57:28.022Z,101177.19
2023-05-08T16:59:54.961Z,101178.13
2023-05-08T17:02:22.203Z,101176.60
2023-05-08T17:04:49.857Z,101170.23
2023-05-08T17:07:17.647Z,101171.94
2023-05-08T17:09:45.306Z,101177.29
2023-05-08T17:12:12.275Z,101179.42
2023-05-08T17:14:40.596Z,101176.08
2023-05-08T17:17:07.902Z,101179.14
2023-05-08T17:19:35.350Z,101185.61
2023-05-08T17:22:02.714Z,101189.65
2023-05-08T17:24:30.517Z,101201.52
2023-05-08T17:26:57.496Z,101202.39
2023-05-08T17:29:24.848Z,101205.80
2023-05-08T17:31:51.904Z,101201.85
2023-05-08T17:34:18.912Z,101197.77
2023-05-08T17:36:45.886Z,101199.24
2023-05-08T17:39:12.944Z,101213.02
2023-05-08T17:41:39.767Z,101225.51
2023-05-08T17:44:07.293Z,101230.19
2023-05-08T17:46:34.234Z,101229.38
2023-05-08T17:49:01.259Z,101217.00
2023-05-08T17:51:28.225Z,101212.21
2023-05-08T17:53:57.319Z,101208.33
2023-05-08T17:56:24.359Z,101213.97
2023-05-08T17:58:52.641Z,101221.45
2023-05-08T18:01:20.853Z,101227.09
2023-05-08T18:03:51.424Z,101232.99
2023-05-08T18:06:19.166Z,101233.84
2023-05-08T18:08:46.782Z,101236.33
2023-05-08T18:11:19.060Z,101237.45
2023-05-08T18:13:49.331Z,101237.08
2023-05-08T18:16:21.371Z,101239.75
2023-05-08T18:18:51.105Z,101245.48
2023-05-08T18:21:21.075Z,101251.92
2023-05-08T18:23:48.273Z,101251.81
2023-05-08T18:26:16.540Z,101249.21
2023-05-08T18:28:44.190Z,101250.64
2023-05-08T18:31:11.979Z,101246.72
2023-05-08T18:33:39.595Z,101243.48
2023-05-08T18:36:07.421Z,101244.06
2023-05-08T18:38:34.794Z,101245.50
2023-05-08T18:41:06.276Z,101249.11
2023-05-08T18:43:33.607Z,101247.84
2023-05-08T18:46:00.896Z,101252.84
2023-05-08T18:48:27.939Z,101247.78
2023-05-08T18:50:58.742Z,101246.98
2023-05-08T18:53:25.842Z,101249.27
2023-05-08T18:55:53.132Z,101252.52
2023-05-08T18:58:20.243Z,101246.66
2023-05-08T19:00:47.386Z,101248.48
2023-05-08T19:03:14.746Z,101251.41
2023-05-08T19:05:42.445Z,101254.48
2023-05-08T19:08:09.377Z,101251.56
2023-05-08T19:10:36.359Z,101242.33
2023-05-08T19:13:05.470Z,101237.43
2023-05-08T19:15:32.649Z,101237.85
2023-05-08T19:17:59.748Z,101246.63
2023-05-08T19:20:26.854Z,101251.61
2023-05-08T19:22:54.297Z,101255.61
2023-05-08T19:25:21.820Z,101258.16
2023-05-08T19:27:49.276Z,101258.13
2023-05-08T19:30:17.002Z,101262.36
2023-05-08T19:32:53.036Z,101258.64
2023-05-08T19:35:21.212Z,101250.45
2023-05-08T19:37:48.143Z,101246.69
2023-05-08T19:40:16.644Z,101249.86
2023-05-08T19:42:45.720Z,101252.31
2023-05-08T19:45:13.799Z,101252.73
2023-05-08T19:47:41.290Z,101257.73
2023-05-08T19:50:09.016Z,101268.23
2023-05-08T19:52:36.271Z,101273.88
2023-05-08T19:55:03.757Z,101283.92
2023-05-08T19:57:30.717Z,101295.55
2023-05-08T19:59:57.648Z,101300.91
2023-05-08T20:02:24.625Z,101308.77
2023-05-08T20:05:14.606Z,101319.45
2023-05-08T20:07:38.476Z,101335.25
2023-05-08T20:10:06.012Z,101349.40
2023-05-08T20:12:33.332Z,101368.38
2023-05-08T20:15:01.800Z,101375.77
2023-05-08T20:17:29.256Z,101380.70
2023-05-08T20:19:56.776Z,101381.28
2023-05-08T20:22:25.181Z,101388.73
2023-05-08T20:24:52.443Z,101394.88
2023-05-08T20:27:21.261Z,101400.52
2023-05-08T20:29:48.727Z,101404.77
2023-05-08T20:32:18.828Z,101408.34
2023-05-08T20:34:45.946Z,101417.05
2023-05-08T20:37:13.141Z,101423.38
2023-05-08T20:39:40.175Z,101437.14
2023-05-08T20:42:08.737Z,101450.20
2023-05-08T20:44:35.701Z,101453.71
2023-05-08T20:47:03.085Z,101448.55
2023-05-08T20:49:30.206Z,101441.19
2023-05-08T20:51:57.264Z,101423.64
2023-05-08T20:54:24.307Z,101407.08
2023-05-08T20:56:51.249Z,101395.33
2023-05-08T20:59:19.009Z,101378.54
2023-05-08T21:01:47.597Z,101366.48
2023-05-08T21:04:15.234Z,101354.20
2023-05-08T21:06:42.402Z,101340.44
2023-05-08T21:09:09.452Z,101320.84
2023-05-08T21:11:36.401Z,101308.77
2023-05-08T21:14:03.450Z,101293.64
2023-05-08T21:16:30.338Z,101287.90
2023-05-08T21:18:58.346Z,101285.09
2023-05-08T21:21:28.792Z,101278.88
2023-05-08T21:23:59.343Z,101272.77
2023-05-08T21:26:26.785Z,101268.30
2023-05-08T21:28:57.363Z,101262.00
2023-05-08T21:31:30.989Z,101256.08
2023-05-08T21:33:58.055Z,101255.77
2023-05-08T21:36:25.108Z,101257.15
2023-05-08T21:38:54.101Z,101261.56
2023-05-08T21:41:21.963Z,101265.27
2023-05-08T21:43:51.991Z,101268.89
2023-05-08T21:46:19.057Z,101266.50
2023-05-08T21:48:46.180Z,101253.17
2023-05-08T21:51:13.225Z,101232.14
2023-05-08T21:53:40.176Z,101217.42
2023-05-08T21:56:07.220Z,101214.11
2023-05-08T21:58:34.989Z,101220.28
2023-05-08T22:01:02.545Z,101224.80
2023-05-08T22:03:30.815Z,101232.77
2023-05-08T22:05:57.861Z,101232.98
2023-05-08T22:08:24.946Z,101236.42
2023-05-08T22:10:51.977Z,101236.21
2023-05-08T22:13:21.959Z,101238.02
2023-05-08T22:15:51.236Z,101239.36
2023-05-08T22:18:18.333Z,101236.90
2023-05-08T22:20:45.316Z,101236.42
2023-05-08T22:23:12.328Z,101245.67
2023-05-08T22:25:39.465Z,101252.52
2023-05-08T22:28:06.517Z,101259.38
2023-05-08T22:30:33.564Z,101268.15
2023-05-08T22:33:01.590Z,101273.23
2023-05-08T22:35:28.682Z,101276.75
2023-05-08T22:37:58.236Z,101267.52
2023-05-08T22:40:26.150Z,101257.32
2023-05-08T22:42:55.911Z,101234.79
2023-05-08T22:45:23.532Z,101191.16
2023-05-08T22:47:50.915Z,101138.95
2023-05-08T22:50:17.929Z,101112.02
2023-05-08T22:52:45.079Z,101116.91
2023-05-08T22:55:12.970Z,101130.73
2023-05-08T22:57:39.989Z,101141.30
2023-05-08T23:00:07.658Z,101141.34
2023-05-08T23:02:36.061Z,101132.25
2023-05-08T23:05:03.962Z,101126.15
2023-05-08T23:07:30.952Z,101123.76
2023-05-08T23:09:57.897Z,101123.28
2023-05-08T23:12:24.934Z,101126.21
2023-05-08T23:14:52.800Z,101144.65
2023-05-08T23:17:19.747Z,101168.17
2023-05-08T23:19:46.914Z,101183.64
2023-05-08T23:22:13.958Z,101187.18
2023-05-08T23:24:40.894Z,101181.20
2023-05-08T23:27:07.944Z,101174.14
2023-05-08T23:29:34.883Z,101170.20
2023-05-08T23:32:01.922Z,101174.77
2023-05-08T23:34:28.871Z,101175.94
2023-05-08T23:36:55.833Z,101176.30
2023-05-08T23:39:24.106Z,101177.31
2023-05-08T23:41:51.685Z,101175.41
2023-05-08T23:44:18.912Z,101166.23
2023-05-08T23:46:46.484Z,101158.05
2023-05-08T23:49:13.580Z,101149.32
2023-05-08T23:51:40.542Z,101146.61
2023-05-08T23:54:07.776Z,101134.28
2023-05-08T23:56:34.655Z,101123.55
2023-05-08T23:59:01.716Z,101116.70
